Elko, Minnesota
Current Conditions -  °F | °C
As of 12:46 AM on Monday 24 Nov 2014 (Local Time) from KLVN Reporting Station
Light Snow Light Snow  
Wind Chill: 17°   Ceiling: 1900
Heat Index: 28°   Visibility: 3mi
Dew Point: 28°   Wind: 14mph
Humidity: 100%   Direction: 290°WNW
Pressure: 29.31"   Gusts: 22mph
Location:  44.56°N, 93.33°W
Report Text: KLVN 240646Z AUTO 29012G19KT 3SM -SN BKN019 OVC043 M02/M02 A2931 RMK AO2
Loading
Personal Weather Stations






























Interactive Weather Map New forecast layout! Learn more

10-Day Weather Forecast

Advertisements
Track Severe Weather on mobile